Tiempo atmosférico en la estación meteorológica de Cuenca, Cuenca (945 m.)



Fecha
DESCASC
Temp. máxima en grados centígrados (hora)
DESCASC
Temp. mínima en grados centígrados (hora)
DESCASC
Temp. media en grados centígrados
DESCASC
Racha de viento máxima en m/sg (hora)
DESCASC
Velocidad máxima media en intervalos de 10 minutos(hora)
DESCASC
Precipitaciones diarias en mm
DESCASC
Precipitaciones de 00:00 a 06:00 en mm
DESCASC
Precipitaciones de 06:00 a 12:00 en mm
DESCASC
Precipitaciones de 12:00 a 18:00 en mm
DESCASC
Precipitaciones de 18:00 a 24:00 en mm
DESCASC
18-10-2018 16.3 (13:20) 10.8 (08:50) 13.5 6.11 (13:30) 3.33 (13:30) 24.2 0.2 0 7.8 16.2
17-10-2018 22.2 (16:10) 5.5 (08:40) 13.9 5.28 (18:00) 2.5 (17:50) 0 0 0 0 0
16-10-2018 20.5 (18:20) 6.6 (08:50) 13.5 5.83 (00:20) 3.33 (00:20) 0 0 0 0 0
15-10-2018 15.7 (16:20) 8 (09:00) 11.8 7.5 (18:40) 3.61 (14:10) 0 0 0 0 0
14-10-2018 17.1 (00:00) 9.8 (00:00) 13.5 11.67 (09:50) 6.11 (09:40) 4 0 2.8 1.2 0
13-10-2018 27.4 (16:20) 10.8 (00:00) 19.1 8.61 (23:10) 4.17 (23:10) 0 0 0 0 0
12-10-2018 24.1 (15:30) 13.6 (00:00) 18.9 6.39 (16:40) 3.61 (16:50) 0 0 0 0 0
11-10-2018 20.4 (18:00) 11.2 (07:00) 15.8 6.67 (11:00) 3.33 (11:10) 0.6 0 0 0.6 0
10-10-2018 21 (16:50) 11.4 (00:00) 16.2 8.61 (09:40) 4.44 (14:20) 0 0 0 0 0
09-10-2018 16.6 (15:50) 5.9 (08:30) 11.3 9.44 (19:00) 4.72 (14:10) 0 0 0 0 0
08-10-2018 18 (15:10) 4.6 (08:20) 11.3 6.39 (21:50) 2.78 (21:40) 0 0 0 0 0
07-10-2018 20.5 (15:30) 10.1 (08:50) 15.3 7.78 (06:30) 2.5 (22:00) 0 0 0 0 0
06-10-2018 27 (16:00) 10.6 (07:50) 18.8 8.33 (17:20) 3.89 (17:20) 0 0 0 0 0
05-10-2018 27.5 (17:00) 10.6 (08:00) 19.1 7.78 (22:50) 3.06 (11:00) 0 0 0 0 0
04-10-2018 27.6 (16:20) 9 (00:00) 18.3 6.39 (21:50) 2.78 (22:30) 0 0 0 0 0
03-10-2018 28.1 (17:10) 7.9 (00:00) 18 4.72 (14:30) 2.78 (16:40) 0 0 0 0 0
02-10-2018 26.2 (17:20) 5.9 (00:00) 16.1 6.11 (06:10) 2.5 (16:10) 0 0 0 0 0
01-10-2018 26.2 (15:30) 11 (00:00) 18.6 8.61 (16:20) 3.61 (13:50) 0 0 0 0 0
30-09-2018 29 (16:50) 10.5 (00:00) 19.8 6.94 (15:40) 2.78 (17:20) 0 0 0 0 0
29-09-2018 28.3 (17:10) 9.8 (00:00) 19 4.44 (13:50) 1.94 (17:00) 0 0 0 0 0
28-09-2018 28.2 (18:10) 10 (00:00) 19.1 5 (12:40) 2.22 (16:10) 0 0 0 0 0
27-09-2018 27.2 (17:00) 12.8 (00:00) 20 5 (19:20) 2.78 (07:40) 0 0 0 0 0
26-09-2018 25.3 (15:50) 16.7 (00:00) 21 10.28 (18:30) 5.83 (18:20) 0 0 0 0 0
25-09-2018 26.9 (16:40) 15.9 (00:00) 21.4 9.17 (10:50) 5 (11:10) 0 0 0 0 0
24-09-2018 32.1 (15:50) 17 (00:00) 24.5 8.61 (01:40) 3.61 (01:30) 0 0 0 0 0
23-09-2018 32.7 (16:30) 15.2 (08:20) 24 6.67 (23:10) 3.33 (23:50) 0 0 0 0 0
22-09-2018 32.1 (17:20) 15.2 (08:10) 23.6 7.78 (14:40) 2.78 (20:30) 0 0 0 0 0
21-09-2018 30.9 (15:50) 14.6 (08:00) 22.8 5.56 (16:10) 2.78 (16:10) 0 0 0 0 0
20-09-2018 30.4 (15:20) 14.8 (08:10) 22.6 5.83 (18:20) 3.33 (18:20) 0 0 0 0 0

Gráficas

Temp. máximas Temp. mínimas Temp. medias Precipitaciones Rachas de viento máximas Velocidades máximas media en intervalos de 10 minutos

Datos horarios

Fecha y hora oficial Temperatura (ºC) Velocidad del viento (km/h) Dirección del viento Racha (km/h) Dirección de racha Precipitación (mm) Presión (hPa) Tendencia (hPa) Humedad (%)
2018-10-19 23:00:00 12.5 4 Sudoeste 10 Sudeste 0 909 1.8 91
2018-10-19 22:00:00 12.9 2 Noroeste 6 Noroeste 0 908.5 2 89
2018-10-19 21:00:00 13.3 3 Sudoeste 23 Este 0 907.9 1.7 86
2018-10-19 20:00:00 13.4 9 Este 22 Este 0 907.2 1.3 82
2018-10-19 19:00:00 13.4 4 Sudeste 14 Sudeste 0.2 906.5 0.6 87
2018-10-19 18:00:00 13.6 4 Sur 12 Este 1 906.2 0.9 92
2018-10-19 17:00:00 13.8 3 Nordeste 8 Norte 1.8 905.9 -0.2 89
2018-10-19 16:00:00 14 0 Calma 14 Sudeste 1 905.9 -0.8 93
2018-10-19 15:00:00 13.5 7 Norte 18 Norte 0.2 905.3 -0.5 93
2018-10-19 14:00:00 12.8 3 Oeste 15 Nordeste 2.2 906.1 0.3 96
2018-10-19 13:00:00 12.3 3 Norte 10 Norte 1.2 906.7 1.4 96
2018-10-19 12:00:00 12 3 Norte 7 Noroeste 1.8 905.8 1.2 95
2018-10-19 11:00:00 11.8 3 Norte 7 Noroeste 0.2 905.8 1.7 91
2018-10-19 10:00:00 11.2 4 Norte 8 Noroeste 0 905.3 1.1 90
2018-10-19 09:00:00 10.4 4 Norte 11 Norte 0 904.6 0.7 92
2018-10-19 08:00:00 10.5 3 Norte 8 Norte 0 904.1 0.5 91
2018-10-19 07:00:00 11 3 Nordeste 12 Este 0 904.2 1.5 89
2018-10-19 06:00:00 11.3 2 Noroeste 11 Sudeste 0 903.9 1.3 87
2018-10-19 05:00:00 11.7 4 Sudeste 13 Este 0 903.6 0.1 80
2018-10-19 04:00:00 12.1 6 Nordeste 28 Nordeste 0 902.7 -1 76
2018-10-19 03:00:00 12 4 Norte 24 Norte 0 902.6 -0.8 89
2018-10-19 02:00:00 12.3 7 Este 19 Nordeste 0 903.5 -0.3 85
2018-10-19 01:00:00 11.6 2 Norte 14 Norte 0 903.7 0 95
2018-10-19 00:00:00 11.7 6 Norte 17 Norte 0 903.4 -0.6 92
2018-10-18 23:00:00 11.8 6 Nordeste 13 Noroeste 1 903.8 -0.1 95
2018-10-18 22:00:00 11.9 3 Oeste 11 Este 7.4 903.7 0.5 94
2018-10-18 21:00:00 12.4 4 Nordeste 16 Nordeste 3.6 904 1 91
2018-10-18 20:00:00 12.6 7 Este 18 Sudeste 4.2 903.9 0.4 92
2018-10-18 19:00:00 12.4 3 Norte 7 Norte 0 903.2 -0.8 93
2018-10-18 18:00:00 12.5 3 Norte 7 Sudeste 0 903 -0.9 89
2018-10-18 17:00:00 12.2 4 Sudeste 13 Sudeste 3.4 903.5 -0.4 91
2018-10-18 16:00:00 13 6 Sur 11 Sur 3.4 904 -0.1 91
2018-10-18 15:00:00 14.4 2 Sur 8 Este 1 903.9 -0.1 82
2018-10-18 14:00:00 15.7 6 Este 22 Sudeste 0 903.9 0 68
2018-10-18 13:00:00 16 3 Sur 8 Sur 0 904.1 0.1 64
2018-10-18 12:00:00 14.9 2 Sudoeste 7 Oeste 0 904 0.2 68
2018-10-18 11:00:00 14.1 4 Sudoeste 7 Sudoeste 0 903.9 0.1 74
2018-10-18 10:00:00 11.6 2 Sudeste 5 Sudoeste 0 904 -0.1 86
2018-10-18 09:00:00 10.8 2 Sudeste 10 Norte 0 903.8 -0.2 89
2018-10-18 08:00:00 11.1 0 Calma 6 Oeste 0 903.8 -0.3 91
2018-10-18 07:00:00 11.6 0 Calma 7 Sudoeste 0 904.1 -0.9 88
2018-10-18 06:00:00 11.6 3 Este 5 Sudeste 0 904 -1.7 88
2018-10-18 05:00:00 12.3 2 Nordeste 6 Norte 0 904.1 -1.9 86
2018-10-18 04:00:00 12.7 2 Sudoeste 4 Oeste 0.2 905 -1.3 78
2018-10-18 03:00:00 12.8 3 Oeste 4 Oeste 0 905.7 -1.1 74
2018-10-18 02:00:00 12.8 3 Oeste 6 Oeste 0 906 -1.1 73
2018-10-18 01:00:00 13.4 3 Oeste 5 Este 0 906.3 -0.5 69
2018-10-18 00:00:00 14.1 0 Calma 5 Sudoeste 0 906.8 0.2 65
2018-10-17 23:00:00 14.8 3 Oeste 5 Oeste 0 907.1 0.8 64
2018-10-17 22:00:00 16 2 Sur 6 Norte 0 906.8 1.1 57
2018-10-17 21:00:00 16.7 3 Nordeste 11 Nordeste 0 906.6 0.6 51
2018-10-17 20:00:00 18.5 5 Norte 16 Sudoeste 0 906.3 0 46
2018-10-17 19:00:00 20.5 7 Sudoeste 18 Sudoeste 0 905.7 -1.1 35
2018-10-17 18:00:00 21.4 9 Oeste 19 Oeste 0 906 -1.3 36
2018-10-17 17:00:00 21.4 4 Noroeste 14 Oeste 0 906.3 -1.8 30
2018-10-17 16:00:00 21.9 6 Noroeste 17 Oeste 0 906.8 -2.5 31
2018-10-17 15:00:00 21.5 4 Oeste 11 Sur 0 907.3 -2.4 35
2018-10-17 14:00:00 20.1 5 Oeste 10 Sudoeste 0 908.1 -1.9 39
2018-10-17 13:00:00 18.2 4 Oeste 10 Oeste 0 909.3 -0.9 48
2018-10-17 12:00:00 15.1 4 Sudoeste 7 Sudoeste 0 909.7 -0.3 62
2018-10-17 11:00:00 11.7 3 Sur 10 Sudeste 0 910 0 73
2018-10-17 10:00:00 7.7 3 Noroeste 14 Noroeste 0 910.2 0.1 86
2018-10-17 09:00:00 5.7 5 Noroeste 15 Norte 0 910 0 93
2018-10-17 08:00:00 6 2 Sudoeste 5 Oeste 0 910 0.2 93
2018-10-17 07:00:00 6.4 2 Sur 8 Noroeste 0 910.1 0 92
2018-10-17 06:00:00 7 6 Norte 17 Norte 0 910 -0.2 88
2018-10-17 05:00:00 7.5 3 Oeste 6 Sudoeste 0 909.8 -0.4 90
2018-10-17 04:00:00 8.2 3 Oeste 8 Norte 0 910.1 0 88
2018-10-17 03:00:00 9.1 0 Calma 7 Norte 0 910.2 -0.1 86
2018-10-17 02:00:00 10 2 Nordeste 4 Nordeste 0 910.2 0 84
2018-10-17 01:00:00 11 3 Norte 5 Norte 0 910.1 0.5 79
2018-10-17 00:00:00 12.3 2 Noroeste 5 Este 0 910.3 1.4 74
2018-10-16 23:00:00 13.6 0 Calma 10 Sudeste 0 910.2 1.7 69
2018-10-16 22:00:00 14.9 4 Sudeste 12 Este 0 909.6 1.6 59
2018-10-16 21:00:00 15.9 4 Nordeste 8 Norte 0 908.9 1.3 57
2018-10-16 20:00:00 17.2 2 Nordeste 10 Noroeste 0 908.5 1 52
2018-10-16 19:00:00 18.9 3 Noroeste 19 Norte 0 908 0.8 46
2018-10-16 18:00:00 20.1 5 Noroeste 16 Noroeste 0 907.6 0.5 43
2018-10-16 17:00:00 19.1 5 Noroeste 12 Norte 0 907.5 0.4 43
2018-10-16 16:00:00 19.1 3 Nordeste 12 Nordeste 0 907.2 -0.1 43
2018-10-16 15:00:00 19.3 4 Sudoeste 9 Noroeste 0 907.1 -0.3 43
2018-10-16 14:00:00 18.1 5 Noroeste 12 Sudoeste 0 907.1 -0.4 45
2018-10-16 13:00:00 18 3 Sudoeste 7 Oeste 0 907.3 0.4 48
2018-10-16 12:00:00 13.7 3 Oeste 9 Nordeste 0 907.4 1.3 67
2018-10-16 11:00:00 10.3 3 Nordeste 8 Nordeste 0 907.5 2.2 81
2018-10-16 10:00:00 8.5 5 Nordeste 17 Norte 0 906.9 2.1 85
2018-10-16 09:00:00 6.7 2 Sudoeste 10 Nordeste 0 906.1 1.2 92
2018-10-16 08:00:00 6.9 5 Norte 15 Norte 0 905.3 0.7 90
2018-10-16 07:00:00 7.4 0 Calma 9 Nordeste 0 904.8 0.3 88
2018-10-16 06:00:00 7.5 3 Norte 8 Nordeste 0 904.9 0.1 88
2018-10-16 05:00:00 7.7 5 Norte 14 Norte 0 904.6 -0.5 88
2018-10-16 04:00:00 8.2 5 Norte 13 Norte 0 904.5 -0.7 89
2018-10-16 03:00:00 8.9 3 Norte 9 Norte 0 904.8 -0.5 88
2018-10-16 02:00:00 9.2 3 Norte 15 Nordeste 0 905.1 0.2 88
2018-10-16 01:00:00 9.6 9 Nordeste 21 Nordeste 0 905.2 0.6 85
2018-10-16 00:00:00 9.7 7 Norte 14 Norte 0 905.3 1.1 87
2018-10-15 23:00:00 9.6 2 Este 9 Oeste 0 904.9 0.8 89
2018-10-15 22:00:00 9.4 5 Oeste 10 Oeste 0 904.6 0.5 89
2018-10-15 21:00:00 10 4 Noroeste 9 Noroeste 0 904.2 0.7 84
2018-10-15 20:00:00 10.5 6 Oeste 18 Noroeste 0 904.1 0.7 82
2018-10-15 19:00:00 12.1 10 Oeste 27 Oeste 0 904.1 1.2 66
2018-10-15 18:00:00 14.5 10 Oeste 19 Sudoeste 0 903.5 0.4 50
2018-10-15 17:00:00 14.5 9 Oeste 22 Oeste 0 903.4 -0.2 52
2018-10-15 16:00:00 14.9 9 Oeste 20 Sudoeste 0 902.9 -0.3 51
2018-10-15 15:00:00 15.1 8 Oeste 23 Oeste 0 903.1 -0.1 50
2018-10-15 14:00:00 14.1 13 Oeste 26 Oeste 0 903.6 0.6 54
2018-10-15 13:00:00 14.4 8 Oeste 17 Oeste 0 903.2 0.1 53
2018-10-15 12:00:00 12.7 4 Noroeste 14 Oeste 0 903.2 0.5 65
2018-10-15 11:00:00 11.3 4 Noroeste 18 Noroeste 0 903 0.8 73
2018-10-15 10:00:00 9.6 2 Noroeste 10 Noroeste 0 903.1 1.2 81
2018-10-15 09:00:00 8 3 Noroeste 15 Norte 0 902.7 1 87
2018-10-15 08:00:00 8.6 5 Noroeste 17 Noroeste 0 902.2 0.5 84
2018-10-15 07:00:00 9 4 Noroeste 16 Norte 0 901.9 0.2 82
2018-10-15 06:00:00 9.1 6 Noroeste 22 Noroeste 0 901.7 -0.4 83
2018-10-15 05:00:00 9.3 5 Noroeste 21 Noroeste 0 901.7 -0.9 83
2018-10-15 04:00:00 9.3 6 Noroeste 16 Noroeste 0 901.7 -0.4 86
2018-10-15 03:00:00 9.3 4 Norte 12 Norte 0 902.1 0 84
2018-10-15 02:00:00 9 6 Noroeste 19 Noroeste 0 902.6 0.6 86
2018-10-15 01:00:00 9.4 9 Noroeste 18 Noroeste 0 902.1 0.2 84
2018-10-15 00:00:00 10 5 Noroeste 22 Norte 0 902.1 0.5 75
2018-10-14 23:00:00 9.9 8 Noroeste 26 Norte 0 902 0.6 83
2018-10-14 22:00:00 10.4 5 Noroeste 13 Oeste 0 901.9 0.9 74
2018-10-14 21:00:00 11.1 5 Oeste 16 Oeste 0 901.6 1.3 67
2018-10-14 20:00:00 12 9 Oeste 22 Oeste 0 901.4 1.2 63
2018-10-14 19:00:00 12.7 9 Noroeste 26 Oeste 0 901 0.6 65
2018-10-14 18:00:00 14.2 12 Noroeste 27 Oeste 0 900.3 -0.6 58
2018-10-14 17:00:00 15.3 10 Oeste 31 Oeste 0 900.2 -1 57
2018-10-14 16:00:00 15.4 15 Oeste 30 Sudoeste 0 900.4 -1.6 67
2018-10-14 15:00:00 15.5 13 Sudoeste 28 Sudoeste 0 900.9 -1.4 70
2018-10-14 14:00:00 15.8 15 Sudoeste 30 Sudoeste 0 901.2 -0.6 77
2018-10-14 13:00:00 14.5 15 Sur 33 Sur 1.2 902 -0.7 89
2018-10-14 12:00:00 14.9 15 Sur 32 Sudeste 0 902.3 0.4 75
2018-10-14 11:00:00 14.3 16 Sudeste 37 Sudeste 0.2 901.8 0 82
2018-10-14 10:00:00 14.2 15 Sur 42 Sur 2.6 902.7 0.8 90
2018-10-14 09:00:00 15.3 16 Sudeste 35 Sudeste 0 901.9 -1 82
2018-10-14 08:00:00 15.4 15 Sur 31 Sudeste 0 901.8 -2.5 80
2018-10-14 07:00:00 15.4 13 Sudeste 28 Sudeste 0 901.9 -2.9 81
2018-10-14 06:00:00 15.5 15 Sudeste 32 Sudeste 0 902.9 -2.2 82
2018-10-14 05:00:00 15.5 15 Sudeste 29 Sudeste 0 904.3 -1.7 85
2018-10-14 04:00:00 15.8 15 Sudeste 28 Sur 0 904.8 -1.5 83
2018-10-14 03:00:00 16.1 15 Sudeste 32 Sudeste 0 905.1 -1.7 82
2018-10-14 02:00:00 16.3 14 Sudeste 32 Sudeste 0 906 -1.6 83
2018-10-14 01:00:00 16.8 16 Sudeste 36 Sudeste 0 906.3 -1.6 81
2018-10-14 00:00:00 17.1 13 Sudeste 31 Sudeste 0 906.8 -1 82
2018-10-13 23:00:00 17.7 13 Sudeste 30 Sur 0 907.6 -0.3 80
2018-10-13 22:00:00 18.8 10 Sudeste 24 Sudeste 0 907.9 -0.1 69
2018-10-13 21:00:00 20.4 10 Sudeste 19 Sudeste 0 907.8 -0.3 50
2018-10-13 20:00:00 22 9 Sudeste 19 Sur 0 907.9 -0.6 42
2018-10-13 19:00:00 24.4 10 Sur 21 Sudoeste 0 908 -1.2 34
2018-10-13 18:00:00 26.1 11 Sudoeste 21 Sudoeste 0 908.1 -1.9 30
2018-10-13 17:00:00 26.9 10 Sur 21 Sudoeste 0 908.5 -2.4 29
2018-10-13 16:00:00 27.2 9 Sudoeste 23 Oeste 0 909.2 -2.8 33
2018-10-13 15:00:00 26.8 11 Sudoeste 21 Sudoeste 0 910 -2.7 34
2018-10-13 14:00:00 25.6 5 Sur 20 Sudoeste 0 910.9 -2.1 38
2018-10-13 13:00:00 24.2 8 Sur 20 Sudoeste 0 912 -1 45
2018-10-13 12:00:00 22.9 8 Sudeste 18 Sudeste 0 912.7 -0.1 50
2018-10-13 11:00:00 20 10 Sur 21 Sur 0 913 0.1 64
2018-10-13 10:00:00 13.2 2 Oeste 4 Noroeste 0 913 0.1 81
2018-10-13 09:00:00 10.9 0 Calma 4 Sudeste 0 912.8 -0.2 89
2018-10-13 08:00:00 11.1 0 Calma 3 Norte 0 912.9 -0.5 87
2018-10-13 07:00:00 11.7 0 Calma 3 Sudoeste 0 912.9 -1.1 87
2018-10-13 06:00:00 12.3 0 Calma 3 Noroeste 0 913 -1.4 85
2018-10-13 05:00:00 12.7 0 Calma 3 Norte 0 913.4 -1.6 83
2018-10-13 04:00:00 13.3 2 Noroeste 18 Sur 0 914 -0.9 81
2018-10-13 03:00:00 13.7 2 Norte 5 Sur 0 914.4 -1 79
2018-10-13 02:00:00 13.6 3 Sudoeste 5 Sur 0 915 -0.6 77
2018-10-13 01:00:00 14.3 0 Calma 6 Norte 0 914.9 -0.5 75
2018-10-13 00:00:00 15.1 0 Calma 5 Sudeste 0 915.4 0.1 73
2018-10-12 23:00:00 16 4 Norte 13 Norte 0 915.6 0.5 70
2018-10-12 22:00:00 17.2 2 Norte 6 Norte 0 915.4 0.4 66
2018-10-12 21:00:00 18.7 2 Noroeste 5 Norte 0 915.3 0.5 61
2018-10-12 20:00:00 20.3 3 Sudoeste 10 Oeste 0 915.1 0 55
2018-10-12 19:00:00 22 6 Oeste 14 Sudoeste 0 915 -0.2 49
2018-10-12 18:00:00 22.9 5 Oeste 20 Noroeste 0 914.8 -0.4 48
2018-10-12 17:00:00 23.5 8 Sudoeste 23 Sur 0 915.1 -0.7 46
2018-10-12 16:00:00 23 10 Oeste 22 Noroeste 0 915.2 -1 49
2018-10-12 15:00:00 22.9 5 Oeste 12 Oeste 0 915.2 -1.1 53
2018-10-12 14:00:00 21.7 4 Sudeste 9 Sur 0 915.8 -0.3 57
2018-10-12 13:00:00 20.1 3 Sur 9 Sudoeste 0 916.2 0.8 65
2018-10-12 12:00:00 17.4 4 Sur 11 Sudeste 0 916.3 1.8 81
2018-10-12 11:00:00 15.7 4 Sudeste 11 Sudeste 0 916.1 2.2 89
2018-10-12 10:00:00 15.1 5 Sur 10 Sudeste 0 915.4 2 89
2018-10-12 09:00:00 14.7 6 Sur 12 Sudeste 0 914.5 1.4 91
2018-10-12 08:00:00 14.5 5 Sudeste 10 Sur 0 913.9 1.3 91
2018-10-12 07:00:00 14.5 5 Sur 12 Este 0 913.4 0.4 92
2018-10-12 06:00:00 13.6 4 Sudeste 9 Sudeste 0 913.1 -0.1 91
2018-10-12 05:00:00 14.3 5 Sudeste 11 Sudeste 0 912.6 -0.4 92
2018-10-12 04:00:00 13.8 3 Sudeste 5 Sudeste 0 913 0.4 92
2018-10-12 03:00:00 14.1 2 Sudeste 8 Sudeste 0 913.2 0.8 89
2018-10-12 02:00:00 14.7 3 Sudeste 6 Sudeste 0 913 1.2 89
2018-10-12 01:00:00 15.5 3 Sur 6 Oeste 0 912.6 1.6 86
2018-10-12 00:00:00 16.1 4 Sur 14 Sudeste 0 912.4 2.1 84
2018-10-11 23:00:00 16 5 Sudeste 11 Sudeste 0 911.8 2.4 83
2018-10-11 22:00:00 16.8 5 Sudeste 14 Sudoeste 0 911 2 79
2018-10-11 21:00:00 18 8 Sudoeste 21 Oeste 0 910.3 1.8 74
2018-10-11 20:00:00 18.6 5 Sur 11 Sur 0 909.4 1.3 70
2018-10-11 19:00:00 19.5 4 Sudoeste 12 Sudoeste 0 909 1.4 67
2018-10-11 18:00:00 20.4 4 Sudoeste 15 Oeste 0 908.5 1.3 62
2018-10-11 17:00:00 19.6 9 Sudoeste 18 Oeste 0 908.1 0 65
2018-10-11 16:00:00 19.8 6 Sur 18 Sur 0 907.6 -0.8 65
2018-10-11 15:00:00 18.4 8 Sur 15 Sudeste 0 907.2 -0.5 74
2018-10-11 14:00:00 17 8 Sur 16 Sur 0.6 908.1 0.7 84
2018-10-11 13:00:00 16.8 7 Sur 19 Sur 0 908.4 1.6 82
2018-10-11 12:00:00 16.9 9 Sur 21 Sur 0 907.7 1.7 76
2018-10-11 11:00:00 15.6 12 Sudeste 24 Sudeste 0 907.4 2.2 80
2018-10-11 10:00:00 13 2 Sudeste 5 Noroeste 0 906.8 1.4 87
2018-10-11 09:00:00 12 3 Noroeste 10 Sur 0 906 1.1 88
2018-10-11 08:00:00 11.4 2 Nordeste 4 Nordeste 0 905.2 0.4 89
2018-10-11 07:00:00 11.2 0 Calma 6 Noroeste 0 905.4 0.3 88
2018-10-11 06:00:00 11.9 2 Noroeste 9 Sudeste 0 904.9 -0.5 85
2018-10-11 05:00:00 12.6 3 Sur 12 Sudeste 0 904.8 -0.4 82
2018-10-11 04:00:00 13.4 6 Sur 14 Este 0 905.1 -0.2 82
2018-10-11 03:00:00 13.8 8 Sur 21 Sudeste 0 905.4 0.7 80
2018-10-11 02:00:00 14 8 Sudeste 18 Sudeste 0 905.2 1 77
2018-10-11 01:00:00 14.1 7 Sudeste 14 Sur 0 905.3 1.6 71
2018-10-11 00:00:00 14.4 4 Sudeste 16 Sur 0 904.7 1.3 69
2018-10-10 23:00:00 14.9 7 Sudeste 17 Sudeste 0 904.2 1.5 69
2018-10-10 22:00:00 15.8 7 Sudeste 18 Sudeste 0 903.7 1.4 64
2018-10-10 21:00:00 16.4 5 Sudeste 13 Sudeste 0 903.4 1.4 61
2018-10-10 20:00:00 17.9 7 Sur 17 Sur 0 902.7 0.6 54
2018-10-10 19:00:00 19.6 8 Sur 19 Sudeste 0 902.3 0.2 49
2018-10-10 18:00:00 20 10 Sur 21 Sudoeste 0 902 -0.2 47
2018-10-10 17:00:00 20 12 Sudoeste 27 Sudoeste 0 902.1 -0.5 46
2018-10-10 16:00:00 19.5 10 Sudoeste 30 Sudoeste 0 902.1 -0.6 52
2018-10-10 15:00:00 18.8 11 Sur 28 Sur 0 902.2 -0.7 58
2018-10-10 14:00:00 18.4 9 Sudoeste 20 Sur 0 902.6 -0.1 55
2018-10-10 13:00:00 17.9 4 Oeste 17 Sudoeste 0 902.7 0.4 53
2018-10-10 12:00:00 16.6 9 Sudoeste 17 Sudoeste 0 902.9 1.2 62
2018-10-10 11:00:00 15.2 10 Sur 27 Sudeste 0 902.7 0.7 67
2018-10-10 10:00:00 13.6 12 Sudeste 31 Sudeste 0 902.3 0.2 75
2018-10-10 09:00:00 11.9 10 Sudeste 26 Sur 0 901.7 -0.2 84
2018-10-10 08:00:00 11.9 9 Sudeste 27 Sudeste 0 902 -0.2 84
2018-10-10 07:00:00 11.9 10 Sudeste 25 Sudeste 0 902.1 -0.8 83
2018-10-10 06:00:00 11.9 13 Sudeste 27 Sur 0 901.9 -1.3 80
2018-10-10 05:00:00 12 14 Sudeste 27 Sudeste 0 902.2 -1.2 79
2018-10-10 04:00:00 11.9 12 Sudeste 25 Sudeste 0 902.9 -0.8 80
2018-10-10 03:00:00 11.7 12 Sudeste 28 Sur 0 903.2 -0.9 78
2018-10-10 02:00:00 11.5 10 Sudeste 24 Sudeste 0 903.4 -1 78
2018-10-10 01:00:00 11.5 10 Sudeste 29 Este 0 903.7 -0.7 79
2018-10-10 00:00:00 11.6 12 Sudeste 26 Sudeste 0 904.1 -0.2 78
2018-10-09 23:00:00 11.6 9 Sudeste 29 Sudeste 0 904.4 0.1 75
2018-10-09 22:00:00 11.8 10 Sudeste 24 Sudeste 0 904.4 0.1 75
2018-10-09 21:00:00 12.4 8 Sudeste 28 Sudeste 0 904.3 -0.1 71
2018-10-09 20:00:00 13 11 Sudeste 29 Sur 0 904.3 -0.2 67
2018-10-09 19:00:00 14 14 Sudeste 34 Sudeste 0 904.3 -0.2 61
2018-10-09 18:00:00 15 14 Sudeste 33 Sudeste 0 904.4 -0.7 56
2018-10-09 17:00:00 15.9 15 Sudeste 26 Sudeste 0 904.5 -1.1 51
2018-10-09 16:00:00 15.7 15 Sudeste 32 Sudeste 0 904.5 -1.5 50
2018-10-09 15:00:00 15 13 Sudeste 33 Sur 0 905.1 -1.1 51
2018-10-09 14:00:00 14.7 15 Sudeste 33 Sudeste 0 905.6 -0.6 51
2018-10-09 13:00:00 15.9 14 Sudeste 28 Sur 0 906 -0.1 47
2018-10-09 12:00:00 15.4 13 Sudeste 29 Sudeste 0 906.2 0.4 47
2018-10-09 11:00:00 13.1 10 Sudeste 21 Sur 0 906.2 0.7 54
2018-10-09 10:00:00 8.5 3 Noroeste 5 Noroeste 0 906.1 0.5 74
2018-10-09 09:00:00 6.1 3 Este 5 Sudeste 0 905.8 -0.2 82
2018-10-09 08:00:00 6.2 3 Norte 7 Norte 0 905.5 -0.9 81
2018-10-09 07:00:00 6.8 3 Sudeste 6 Norte 0 905.6 -1.1 81
2018-10-09 06:00:00 7.2 2 Sudeste 9 Nordeste 0 906 -1.4 80
2018-10-09 05:00:00 8.1 0 Calma 13 Norte 0 906.4 -1.1 77
2018-10-09 04:00:00 8.9 5 Norte 12 Nordeste 0 906.7 -0.9 75
2018-10-09 03:00:00 9.4 0 Calma 8 Norte 0 907.4 -0.7 76
2018-10-09 02:00:00 9.4 4 Norte 8 Norte 0 907.5 -0.7 77
2018-10-09 01:00:00 10 3 Nordeste 7 Nordeste 0 907.6 -0.7 73
2018-10-09 00:00:00 10.3 2 Norte 15 Sur 0 908.1 0.3 72
2018-10-08 23:00:00 11.2 9 Sur 17 Sudeste 0 908.2 0.7 68
2018-10-08 22:00:00 12.6 7 Sudeste 23 Sudeste 0 908.3 1 58
2018-10-08 21:00:00 12.8 7 Sudeste 17 Sudeste 0 907.8 0.4 58
2018-10-08 20:00:00 13.4 6 Norte 16 Norte 0 907.5 -0.2 56
2018-10-08 19:00:00 15.2 3 Norte 10 Nordeste 0 907.3 -0.5 47
2018-10-08 18:00:00 15.8 3 Norte 10 Norte 0 907.4 -0.6 44
2018-10-08 17:00:00 16.3 5 Este 11 Sudeste 0 907.7 -0.9 42
2018-10-08 16:00:00 17 6 Este 17 Sur 0 907.8 -1.5 41
2018-10-08 15:00:00 16.8 3 Nordeste 16 Oeste 0 908 -1.6 41
2018-10-08 14:00:00 17.5 7 Oeste 13 Norte 0 908.6 -1.1 40
2018-10-08 13:00:00 16.9 4 Nordeste 14 Norte 0 909.3 -0.3 44
2018-10-08 12:00:00 15 5 Norte 13 Norte 0 909.6 0.6 49
2018-10-08 11:00:00 12 4 Noroeste 9 Noroeste 0 909.7 0.8 59
2018-10-08 10:00:00 8.3 3 Sur 10 Norte 0 909.6 0.8 67
2018-10-08 09:00:00 4.8 0 Calma 5 Norte 0 909 0.1 77
2018-10-08 08:00:00 4.8 0 Calma 8 Norte 0 908.9 -0.3 74
2018-10-08 07:00:00 5.4 4 Norte 12 Norte 0 908.8 -0.9 74
2018-10-08 06:00:00 6.5 0 Calma 10 Nordeste 0 908.9 -1.2 71
2018-10-08 05:00:00 7 5 Norte 10 Norte 0 909.2 -1.1 69
2018-10-08 04:00:00 7.6 0 Calma 6 Norte 0 909.7 -0.9 65
2018-10-08 03:00:00 8.6 0 Calma 10 Norte 0 910.1 -0.8 62
2018-10-08 02:00:00 8.8 0 Calma 15 Norte 0 910.3 -0.5 60
2018-10-08 01:00:00 9.1 3 Norte 13 Noroeste 0 910.6 0.1 55
2018-10-08 00:00:00 10.2 4 Noroeste 11 Norte 0 910.9 0.7 50
2018-10-07 23:00:00 11.2 3 Noroeste 13 Nordeste 0 910.8 1.2 45
2018-10-07 22:00:00 12.2 9 Nordeste 16 Este 0 910.5 1.7 41
2018-10-07 21:00:00 13.4 4 Norte 12 Norte 0 910.2 1.6 38
2018-10-07 20:00:00 15.1 5 Norte 19 Noroeste 0 909.6 1.2 34
2018-10-07 19:00:00 18 7 Norte 23 Norte 0 908.8 0.1 29
2018-10-07 18:00:00 19.1 7 Norte 23 Noroeste 0 908.6 0 26
2018-10-07 17:00:00 20 5 Noroeste 23 Noroeste 0 908.4 -0.6 24
2018-10-07 16:00:00 19.7 8 Norte 22 Norte 0 908.7 -0.8 25
2018-10-07 15:00:00 19.8 8 Noroeste 18 Noroeste 0 908.6 -1 24
2018-10-07 14:00:00 19.4 6 Noroeste 17 Noroeste 0 909 -0.4 26
2018-10-07 13:00:00 17.7 8 Norte 15 Nordeste 0 909.5 0.2 33
2018-10-07 12:00:00 16.9 4 Noroeste 16 Norte 0 909.6 1 35
2018-10-07 11:00:00 14.5 6 Norte 16 Nordeste 0 909.4 1.2 46
2018-10-07 10:00:00 11.9 6 Norte 14 Norte 0 909.3 1.3 55
2018-10-07 09:00:00 10.1 3 Norte 13 Norte 0 908.6 0.9 60
2018-10-07 08:00:00 10.7 8 Norte 24 Nordeste 0 908.2 0.4 58
2018-10-07 07:00:00 11.5 7 Norte 28 Norte 0 908 0 60
2018-10-07 06:00:00 12.2 7 Norte 25 Norte 0 907.7 -0.5 60
2018-10-07 05:00:00 12.7 6 Norte 19 Norte 0 907.8 -0.4 54
2018-10-07 04:00:00 12.3 3 Norte 9 Norte 0 908 -0.4 52
2018-10-07 03:00:00 12.9 0 Calma 5 Oeste 0 908.2 -0.5 49
2018-10-07 02:00:00 14 3 Oeste 5 Oeste 0 908.2 -0.4 45
2018-10-07 01:00:00 15.2 0 Calma 8 Noroeste 0 908.4 0 44
2018-10-07 00:00:00 16.2 4 Este 8 Oeste 0 908.7 0.6 40
2018-10-06 23:00:00 18.3 2 Norte 5 Norte 0 908.6 0.7 37
2018-10-06 22:00:00 19.7 3 Noroeste 13 Noroeste 0 908.4 0.8 32
2018-10-06 21:00:00 20.9 3 Norte 9 Oeste 0 908.1 0.3 30
2018-10-06 20:00:00 22.8 4 Noroeste 17 Noroeste 0 907.9 -0.3 26
2018-10-06 19:00:00 25 8 Noroeste 28 Oeste 0 907.6 -0.8 22
2018-10-06 18:00:00 25.9 11 Oeste 30 Oeste 0 907.8 -1.1 22
2018-10-06 17:00:00 26.7 10 Oeste 26 Noroeste 0 908.2 -1.3 22
2018-10-06 16:00:00 26.7 12 Oeste 29 Sudoeste 0 908.4 -1.9 21
2018-10-06 15:00:00 25.4 12 Noroeste 24 Noroeste 0 908.9 -2 23
2018-10-06 14:00:00 24.9 5 Norte 15 Noroeste 0 909.5 -1.4 34
2018-10-06 13:00:00 23 3 Noroeste 10 Oeste 0 910.3 -0.3 45
2018-10-06 12:00:00 20.1 3 Noroeste 8 Oeste 0 910.9 0.5 56
2018-10-06 11:00:00 17.2 3 Sudoeste 9 Noroeste 0 910.9 0.8 67
2018-10-06 10:00:00 13.5 3 Sur 5 Noroeste 0 910.6 0.8 78
2018-10-06 09:00:00 10.8 3 Norte 6 Norte 0 910.4 0.7 89
2018-10-06 08:00:00 10.7 0 Calma 3 Sudoeste 0 910.1 0.3 88
2018-10-06 07:00:00 11.4 2 Oeste 3 Sudoeste 0 909.8 -0.5 84
2018-10-06 06:00:00 12.1 0 Calma 3 Oeste 0 909.7 -0.9 87
2018-10-06 05:00:00 12.7 2 Sudoeste 3 Oeste 0 909.8 -1 85
2018-10-06 04:00:00 13.7 0 Calma 6 Oeste 0 910.3 -0.5 84
2018-10-06 03:00:00 14.2 4 Oeste 6 Sudoeste 0 910.6 -0.1 82
2018-10-06 02:00:00 15.4 3 Noroeste 10 Sudeste 0 910.8 0.3 77
2018-10-06 01:00:00 16.5 5 Sudeste 16 Sudeste 0 910.8 1 72
2018-10-06 00:00:00 17.4 9 Sudeste 22 Sudeste 0 910.7 1.4 66
2018-10-05 23:00:00 18.1 9 Sudeste 28 Sudeste 0 910.5 1.5 44
2018-10-05 22:00:00 18.9 2 Oeste 6 Sudeste 0 909.8 1.2 39
2018-10-05 21:00:00 21.2 0 Calma 12 Sudoeste 0 909.3 0.6 32
2018-10-05 20:00:00 23.4 5 Sudoeste 13 Oeste 0 909 0.2 28
2018-10-05 19:00:00 25.3 5 Sudoeste 10 Sudoeste 0 908.6 -0.7 26
2018-10-05 18:00:00 25.1 4 Sudoeste 16 Sudoeste 0 908.7 -1.2 26
2018-10-05 17:00:00 27.5 5 Sudoeste 17 Noroeste 0 908.8 -1.6 23
2018-10-05 16:00:00 26.9 4 Nordeste 15 Sudoeste 0 909.3 -1.7 25
2018-10-05 15:00:00 25.8 5 Sudoeste 15 Sudeste 0 909.9 -1.7 28
2018-10-05 14:00:00 24.6 6 Sur 17 Sur 0 910.4 -1.3 37
2018-10-05 13:00:00 22.3 9 Sudeste 19 Sudeste 0 911 -0.8 45
2018-10-05 12:00:00 20.5 10 Sudeste 22 Sudeste 0 911.6 -0.1 52
2018-10-05 11:00:00 18.3 11 Sur 19 Sur 0 911.7 0.3 61
2018-10-05 10:00:00 14.1 2 Sudoeste 4 Sudoeste 0 911.8 0.4 70
2018-10-05 09:00:00 10.7 0 Calma 4 Noroeste 0 911.7 0.5 82
2018-10-05 08:00:00 10.6 0 Calma 3 Sudoeste 0 911.4 -0.1 81
2018-10-05 07:00:00 11.3 0 Calma 2 Sudeste 0 911.4 -0.6 81
2018-10-05 06:00:00 11.9 0 Calma 3 Norte 0 911.2 -1.4 78
2018-10-05 05:00:00 12.6 3 Sudoeste 4 Norte 0 911.5 -1.2 76
2018-10-05 04:00:00 13.4 0 Calma 5 Oeste 0 912 -1 74
2018-10-05 03:00:00 14 2 Sudoeste 7 Noroeste 0 912.6 -0.3 72
2018-10-05 02:00:00 15 3 Oeste 12 Sudeste 0 912.7 0 68
2018-10-05 01:00:00 16 4 Sur 22 Sur 0 913 0.8 63
2018-10-05 00:00:00 17 9 Sudeste 22 Sur 0 912.9 1.5 60
2018-10-04 23:00:00 17.7 2 Sur 18 Sudeste 0 912.7 1.5 52
2018-10-04 22:00:00 19 7 Sur 23 Sudeste 0 912.2 1.2 43
2018-10-04 21:00:00 21.2 4 Este 8 Este 0 911.4 0.3 26
2018-10-04 20:00:00 23.5 2 Sudoeste 11 Sudoeste 0 911.2 -0.1 23
2018-10-04 19:00:00 26.3 5 Oeste 14 Oeste 0 911 -0.8 19
2018-10-04 18:00:00 26.9 6 Sur 21 Sudeste 0 911.1 -0.8 19
2018-10-04 17:00:00 27.4 9 Oeste 16 Sudoeste 0 911.3 -1.2 18
2018-10-04 16:00:00 27.3 6 Oeste 19 Sudoeste 0 911.8 -1.2 18
2018-10-04 15:00:00 26.8 7 Oeste 18 Oeste 0 911.9 -1.5 18
2018-10-04 14:00:00 26 8 Oeste 17 Oeste 0 912.5 -1.1 21
2018-10-04 13:00:00 24.5 6 Sur 13 Sudoeste 0 913 -0.5 25
2018-10-04 12:00:00 21.8 6 Sudeste 13 Sur 0 913.4 0.4 31
2018-10-04 11:00:00 17.3 2 Sudoeste 5 Sudeste 0 913.6 0.7 45
2018-10-04 10:00:00 12.8 2 Sudoeste 5 Sudoeste 0 913.5 0.9 57
2018-10-04 09:00:00 9.1 0 Calma 3 Oeste 0 913 0.5 65
2018-10-04 08:00:00 9.3 0 Calma 3 Sudoeste 0 912.9 0.2 64
2018-10-04 07:00:00 10 2 Norte 5 Norte 0 912.6 -0.7 64
2018-10-04 06:00:00 10.4 0 Calma 3 Sudeste 0 912.5 -1.3 60
2018-10-04 05:00:00 11.3 0 Calma 4 Norte 0 912.7 -1.3 58
2018-10-04 04:00:00 12.2 0 Calma 5 Noroeste 0 913.3 -0.8 54
2018-10-04 03:00:00 12.8 0 Calma 6 Norte 0 913.8 -0.4 53
2018-10-04 02:00:00 13.8 0 Calma 4 Noroeste 0 914 -0.2 50
2018-10-04 01:00:00 14.5 3 Oeste 7 Oeste 0 914.1 0 43
2018-10-04 00:00:00 15.7 3 Oeste 6 Sudoeste 0 914.2 0.5 42
2018-10-03 23:00:00 17.1 3 Nordeste 7 Norte 0 914.2 0.9 40
2018-10-03 22:00:00 18.9 2 Norte 8 Norte 0 914.1 1 36
2018-10-03 21:00:00 21 4 Norte 9 Nordeste 0 913.7 0.8 32
2018-10-03 20:00:00 23.8 3 Noroeste 10 Norte 0 913.3 0.1 27
2018-10-03 19:00:00 26.6 4 Norte 16 Nordeste 0 913.1 -0.5 22
2018-10-03 18:00:00 27.8 6 Norte 15 Norte 0 912.9 -1.4 21
2018-10-03 17:00:00 28 5 Sudoeste 15 Oeste 0 913.2 -1.7 20
2018-10-03 16:00:00 27.3 5 Noroeste 15 Noroeste 0 913.6 -1.8 21
2018-10-03 15:00:00 26.9 5 Oeste 17 Oeste 0 914.3 -1.4 23
2018-10-03 14:00:00 26.4 5 Oeste 13 Noroeste 0 914.9 -1.2 23
2018-10-03 13:00:00 24.4 3 Sur 9 Oeste 0 915.4 -0.7 24
2018-10-03 12:00:00 21.1 3 Sur 6 Sudoeste 0 915.7 0.1 26
2018-10-03 11:00:00 16.2 4 Noroeste 7 Noroeste 0 916.1 1 37
2018-10-03 10:00:00 11.8 2 Noroeste 5 Noroeste 0 916.1 1 45
2018-10-03 09:00:00 8.1 0 Calma 5 Sur 0 915.6 0.8 51
2018-10-03 08:00:00 8.1 0 Calma 4 Oeste 0 915.1 0.1 48
2018-10-03 07:00:00 8.1 0 Calma 5 Sur 0 915.1 0 46
2018-10-03 06:00:00 8.7 0 Calma 4 Sur 0 914.8 -0.4 45
2018-10-03 05:00:00 9.4 3 Oeste 4 Nordeste 0 915 -0.2 42
2018-10-03 04:00:00 10.1 3 Oeste 5 Oeste 0 915.1 -0.3 39
2018-10-03 03:00:00 11.1 4 Nordeste 10 Norte 0 915.2 0.1 38
2018-10-03 02:00:00 12.1 2 Norte 5 Noroeste 0 915.2 0.5 36
2018-10-03 01:00:00 13.1 3 Norte 9 Norte 0 915.4 1.2 32
2018-10-03 00:00:00 14 0 Calma 6 Norte 0 915.1 1.3 31
2018-10-02 23:00:00 15.4 4 Oeste 17 Nordeste 0 914.7 1.5 27
2018-10-02 22:00:00 17.2 3 Noroeste 7 Norte 0 914.2 1.4 25
2018-10-02 21:00:00 19.7 0 Calma 10 Norte 0 913.8 1.1 21
2018-10-02 20:00:00 22 4 Noroeste 16 Noroeste 0 913.2 0.3 16
2018-10-02 19:00:00 24.7 5 Noroeste 20 Noroeste 0 912.8 -0.4 12
2018-10-02 18:00:00 25.4 8 Noroeste 19 Noroeste 0 912.7 -0.8 11
2018-10-02 17:00:00 25.8 5 Oeste 18 Oeste 0 912.9 -1.1 11
2018-10-02 16:00:00 25.1 6 Oeste 13 Oeste 0 913.2 -1.4 13
2018-10-02 15:00:00 23.2 4 Este 9 Oeste 0 913.5 -1 14
2018-10-02 14:00:00 21.8 6 Sudoeste 12 Sudoeste 0 914 -0.4 16
2018-10-02 13:00:00 19 3 Sudoeste 12 Oeste 0 914.6 0.5 23
2018-10-02 12:00:00 16.2 4 Oeste 9 Oeste 0 914.5 0.9 30
2018-10-02 11:00:00 13 3 Sudoeste 6 Sudoeste 0 914.4 1.2 37
2018-10-02 10:00:00 9.1 3 Sur 13 Norte 0 914.1 1.2 46
2018-10-02 09:00:00 6 2 Noroeste 10 Sudoeste 0 913.6 1.4 55
2018-10-02 08:00:00 6.8 3 Noroeste 10 Sudeste 0 913.2 1.2 52
2018-10-02 07:00:00 8.3 3 Sudoeste 22 Nordeste 0 912.9 0.5 47
2018-10-02 06:00:00 8.9 3 Este 15 Norte 0 912.2 -0.5 47
2018-10-02 05:00:00 8.7 5 Sudoeste 19 Norte 0 912 -1.3 52
2018-10-02 04:00:00 9.4 8 Noroeste 21 Noroeste 0 912.4 -1.1 49
2018-10-02 03:00:00 9.9 4 Noroeste 9 Noroeste 0 912.7 -0.6 48
2018-10-02 02:00:00 11.3 3 Norte 8 Norte 0 913.3 0.2 44
2018-10-02 01:00:00 12 3 Norte 13 Norte 0 913.5 0.7 41
2018-10-02 00:00:00 13.4 5 Norte 16 Norte 0 913.3 0.9 39
2018-10-01 23:00:00 14.4 2 Norte 14 Noroeste 0 913.1 1.3 37
2018-10-01 22:00:00 15.8 3 Noroeste 13 Norte 0 912.8 1.6 33
2018-10-01 21:00:00 17.8 4 Norte 15 Norte 0 912.4 1.6 29
2018-10-01 20:00:00 20 5 Norte 19 Norte 0 911.8 1 25
2018-10-01 19:00:00 23.3 8 Norte 23 Noroeste 0 911.2 0.5 15
2018-10-01 18:00:00 24.9 6 Noroeste 27 Norte 0 910.8 -0.5 15
2018-10-01 17:00:00 25.7 8 Norte 31 Noroeste 0 910.8 -0.9 9
2018-10-01 16:00:00 26.1 9 Norte 28 Noroeste 0 910.7 -1.5 14
2018-10-01 15:00:00 25.3 9 Norte 30 Noroeste 0 911.3 -1.4 16
2018-10-01 14:00:00 23.5 12 Noroeste 26 Noroeste 0 911.7 -1 22
2018-10-01 13:00:00 22.1 10 Noroeste 22 Oeste 0 912.2 -0.1 26
2018-10-01 12:00:00 20 4 Norte 16 Norte 0 912.7 0.9 29
2018-10-01 11:00:00 16.2 8 Norte 26 Norte 0 912.7 1.4 37
2018-10-01 10:00:00 13.4 6 Norte 15 Norte 0 912.3 1.6 51
2018-10-01 09:00:00 11.2 4 Norte 20 Norte 0 911.8 1.2 62
2018-10-01 08:00:00 11.4 4 Norte 11 Sudeste 0 911.3 0.7 64
2018-10-01 07:00:00 12 3 Sudeste 17 Norte 0 910.7 -0.2 64
2018-10-01 06:00:00 12.9 2 Sudoeste 10 Norte 0 910.6 -0.6 57
2018-10-01 05:00:00 13.7 2 Sur 5 Noroeste 0 910.6 -0.5 53
2018-10-01 04:00:00 14.5 0 Calma 5 Sudoeste 0 910.9 -0.4 51
2018-10-01 03:00:00 15.4 2 Este 5 Sur 0 911.2 0.2 48
2018-10-01 02:00:00 15.9 5 Norte 9 Norte 0 911.1 0.3 49
2018-10-01 01:00:00 16.4 0 Calma 6 Oeste 0 911.3 0.8 42
2018-10-01 00:00:00 17.6 3 Este 19 Norte 0 911 0.8 42
2018-09-30 23:00:00 18.2 2 Sur 8 Nordeste 0 910.8 0.7 40
2018-09-30 22:00:00 20 3 Nordeste 22 Noroeste 0 910.5 0.8 34
2018-09-30 21:00:00 22.3 3 Norte 12 Noroeste 0 910.2 0.4 29
2018-09-30 20:00:00 24.5 3 Noroeste 15 Norte 0 910.1 0.1 25
2018-09-30 19:00:00 27.2 5 Noroeste 19 Noroeste 0 909.7 -0.3 21
2018-09-30 18:00:00 27.9 8 Noroeste 25 Noroeste 0 909.8 -0.6 21
2018-09-30 17:00:00 28.8 6 Noroeste 19 Noroeste 0 910 -0.9 20
2018-09-30 16:00:00 28.4 7 Noroeste 25 Norte 0 910 -1.2 21
2018-09-30 15:00:00 27.9 6 Noroeste 16 Norte 0 910.4 -1.2 22
2018-09-30 14:00:00 27 4 Oeste 12 Sudeste 0 910.9 -1 24
2018-09-30 13:00:00 25.7 4 Oeste 11 Sur 0 911.2 -0.6 26
2018-09-30 12:00:00 22.9 5 Sur 9 Sudeste 0 911.6 0.2 34
2018-09-30 11:00:00 18.3 3 Oeste 5 Norte 0 911.9 1 49
2018-09-30 10:00:00 14.4 3 Sudoeste 4 Sudoeste 0 911.8 1.1 59
2018-09-30 09:00:00 10.7 0 Calma 3 Sur 0 911.4 0.7 73
2018-09-30 08:00:00 10.6 0 Calma 3 Norte 0 910.9 0.2 72
2018-09-30 07:00:00 11.2 0 Calma 3 Norte 0 910.7 -0.2 69
2018-09-30 06:00:00 12 0 Calma 2 Sudoeste 0 910.7 -0.3 66
2018-09-30 05:00:00 12.9 0 Calma 5 Norte 0 910.7 -0.3 64
2018-09-30 04:00:00 13.7 3 Norte 5 Norte 0 910.9 -0.1 62
2018-09-30 03:00:00 14.5 0 Calma 7 Norte 0 911 0.3 58
2018-09-30 02:00:00 15.2 2 Noroeste 7 Norte 0 911 0.6 55
2018-09-30 01:00:00 15.7 2 Oeste 8 Noroeste 0 911 1 47
2018-09-30 00:00:00 16.5 3 Oeste 7 Sur 0 910.7 1.1 41
2018-09-29 23:00:00 18 3 Oeste 5 Sudeste 0 910.4 1.4 36
2018-09-29 22:00:00 20.2 3 Sudoeste 9 Sudeste 0 910 1.6 32
2018-09-29 21:00:00 22.3 5 Sudeste 9 Este 0 909.6 1.1 26
2018-09-29 20:00:00 24.6 0 Calma 13 Oeste 0 909 0.2 25
2018-09-29 19:00:00 27.2 5 Oeste 13 Sudoeste 0 908.4 -0.7 23
2018-09-29 18:00:00 28.2 5 Sudeste 12 Nordeste 0 908.5 -1.3 21
2018-09-29 17:00:00 28 7 Oeste 15 Sudoeste 0 908.8 -1.6 22
2018-09-29 16:00:00 27.7 6 Oeste 14 Sudoeste 0 909.1 -1.7 22
2018-09-29 15:00:00 27.2 3 Oeste 13 Noroeste 0 909.8 -1.6 22
2018-09-29 14:00:00 26.1 5 Sur 16 Sudoeste 0 910.4 -1.3 28
2018-09-29 13:00:00 24.7 4 Norte 10 Nordeste 0 910.8 -0.9 31
2018-09-29 12:00:00 22 4 Sudoeste 7 Sudoeste 0 911.4 -0.1 38
2018-09-29 11:00:00 18.3 3 Sur 6 Sur 0 911.7 0.3 46
2018-09-29 10:00:00 14 0 Calma 4 Oeste 0 911.7 0.5 58
2018-09-29 09:00:00 10 2 Sudoeste 5 Sudeste 0 911.5 0.3 68
2018-09-29 08:00:00 9.9 2 Sudeste 4 Sudeste 0 911.4 0.2 68
2018-09-29 07:00:00 10.5 0 Calma 4 Norte 0 911.2 -0.4 67
2018-09-29 06:00:00 11 0 Calma 3 Noroeste 0 911.2 -0.8 64
2018-09-29 05:00:00 11.8 2 Sudoeste 4 Norte 0 911.2 -0.9 62
2018-09-29 04:00:00 12.6 3 Norte 7 Norte 0 911.6 -0.7 58
2018-09-29 03:00:00 13.5 3 Nordeste 6 Norte 0 912 -0.3 57
2018-09-29 02:00:00 14.4 2 Sudoeste 7 Norte 0 912.1 -0.3 55
2018-09-29 01:00:00 15.5 4 Norte 6 Nordeste 0 912.3 0.1 52
2018-09-29 00:00:00 16.7 4 Oeste 5 Oeste 0 912.3 0.7 52
2018-09-28 23:00:00 18.1 2 Noroeste 6 Noroeste 0 912.4 1.3 47
2018-09-28 22:00:00 20 3 Sudoeste 11 Sudeste 0 912.2 1 41
2018-09-28 21:00:00 21.9 8 Sudeste 15 Sudeste 0 911.6 0.4 37
2018-09-28 20:00:00 24.7 3 Oeste 8 Oeste 0 911.1 -0.5 25
2018-09-28 19:00:00 27.5 2 Norte 10 Oeste 0 911.2 -0.8 20
2018-09-28 18:00:00 28.1 4 Sudoeste 15 Oeste 0 911.2 -1.7 19
2018-09-28 17:00:00 27.8 3 Oeste 15 Oeste 0 911.6 -2 20
2018-09-28 16:00:00 27.5 8 Sudoeste 18 Sudeste 0 912 -2.2 20
2018-09-28 15:00:00 26.8 6 Sudoeste 15 Oeste 0 912.9 -1.9 23
2018-09-28 14:00:00 25.5 4 Sudoeste 13 Oeste 0 913.6 -1.3 27
2018-09-28 13:00:00 23.3 5 Oeste 18 Oeste 0 914.2 -0.7 39
2018-09-28 12:00:00 20.5 4 Sudoeste 9 Sudoeste 0 914.8 0.1 54
2018-09-28 11:00:00 17.3 4 Oeste 6 Oeste 0 914.9 0.4 66
2018-09-28 10:00:00 13.7 0 Calma 5 Sudoeste 0 914.9 0.2 78
2018-09-28 09:00:00 10.1 0 Calma 4 Sudeste 0 914.7 -0.1 92
2018-09-28 08:00:00 10.2 2 Sur 6 Este 0 914.5 -0.7 88
2018-09-28 07:00:00 10.8 0 Calma 5 Sudoeste 0 914.7 -1.1 86
2018-09-28 06:00:00 11.6 4 Sudoeste 5 Sudoeste 0 914.8 -1.7 86
2018-09-28 05:00:00 12.4 3 Sudoeste 5 Sudoeste 0 915.2 -1.9 83
2018-09-28 04:00:00 13.2 3 Norte 5 Norte 0 915.8 -1.7 81
2018-09-28 03:00:00 14 0 Calma 5 Nordeste 0 916.5 -1.2 78
2018-09-28 02:00:00 15 0 Calma 6 Norte 0 917.1 -0.6 75
2018-09-28 01:00:00 16 3 Noroeste 11 Sudeste 0 917.5 -0.1 69
2018-09-28 00:00:00 17.1 6 Sudeste 14 Sudeste 0 917.7 0.3 66
2018-09-27 23:00:00 18.2 7 Sudeste 13 Sudeste 0 917.7 0.6 61
2018-09-27 22:00:00 19.6 6 Sur 13 Sudeste 0 917.6 0.8 55
2018-09-27 21:00:00 20.9 4 Sur 15 Sudeste 0 917.4 0.2 50
2018-09-27 20:00:00 22.8 7 Sur 18 Sudoeste 0 917.1 -0.5 46
2018-09-27 19:00:00 25.8 8 Sur 16 Sur 0 916.8 -1.4 38
2018-09-27 18:00:00 26.5 4 Oeste 13 Sudoeste 0 917.2 -1.7 36
2018-09-27 17:00:00 27.2 6 Sur 15 Noroeste 0 917.6 -2.4 36
2018-09-27 16:00:00 26.5 5 Sudoeste 13 Oeste 0 918.2 -2.4 38
2018-09-27 15:00:00 24.5 5 Sur 14 Sur 0 918.9 -2.2 41
2018-09-27 14:00:00 24.3 7 Oeste 14 Oeste 0 920 -1.5 44
2018-09-27 13:00:00 22.7 5 Sudoeste 16 Sudoeste 0 920.6 -1.2 48
2018-09-27 12:00:00 20.7 6 Sudoeste 12 Sur 0 921.1 -0.5 59
2018-09-27 11:00:00 18.5 4 Oeste 8 Oeste 0 921.5 0.3 68
2018-09-27 10:00:00 15.7 3 Oeste 5 Oeste 0 921.8 0.5 75
2018-09-27 09:00:00 12.8 3 Sur 13 Nordeste 0 921.6 0.2 84
2018-09-27 08:00:00 13.4 5 Nordeste 16 Nordeste 0 921.2 -0.3 82
2018-09-27 07:00:00 13.4 3 Nordeste 8 Nordeste 0 921.3 -0.2 83
2018-09-27 06:00:00 13.3 3 Noroeste 7 Noroeste 0 921.4 -0.5 82
2018-09-27 05:00:00 14 0 Calma 8 Noroeste 0 921.5 -0.5 79
2018-09-27 04:00:00 14.7 0 Calma 7 Noroeste 0 921.5 -0.5 77
2018-09-27 03:00:00 15.3 0 Calma 6 Oeste 0 921.9 -0.4 75
2018-09-27 02:00:00 16 6 Oeste 13 Sudeste 0 922 -0.4 71
2018-09-27 01:00:00 16.3 5 Sudeste 12 Sur 0 922 0.1 72
2018-09-27 00:00:00 16.7 4 Sudeste 14 Sudeste 0 922.3 1.1 73
2018-09-26 23:00:00 17 5 Sur 17 Sur 0 922.4 1.8 73
2018-09-26 22:00:00 17.2 6 Sudeste 17 Sur 0 921.9 1.6 72
2018-09-26 21:00:00 18.1 9 Sudeste 27 Sur 0 921.2 1.1 69
2018-09-26 20:00:00 19.5 13 Sudeste 31 Sudeste 0 920.6 0.8 62
2018-09-26 19:00:00 21.1 16 Sudeste 37 Sudeste 0 920.3 0.4 56
2018-09-26 18:00:00 22.8 19 Sudeste 36 Sudeste 0 920.1 -0.1 51
2018-09-26 17:00:00 24.1 14 Sur 34 Sur 0 919.8 -0.7 47
2018-09-26 16:00:00 24.9 15 Sudeste 30 Este 0 919.9 -0.6 43
2018-09-26 15:00:00 24.6 13 Sudeste 31 Sudeste 0 920.2 -0.5 45
2018-09-26 14:00:00 24.2 14 Sudeste 28 Sur 0 920.5 0.1 47
2018-09-26 13:00:00 23.3 14 Sudeste 28 Sudeste 0 920.5 0.4 51
2018-09-26 12:00:00 21.7 13 Sudeste 29 Sudeste 0 920.7 1 59
2018-09-26 11:00:00 20.1 14 Sudeste 27 Sur 0 920.4 1.4 67
2018-09-26 10:00:00 18.5 12 Sudeste 22 Sur 0 920.1 1.6 75
2018-09-26 09:00:00 17 8 Sudeste 23 Sudeste 0 919.7 1.4 82
2018-09-26 08:00:00 16.9 7 Sudeste 31 Sudeste 0 919 0.8 81
2018-09-26 07:00:00 16.7 9 Sudeste 25 Sudeste 0 918.5 0.4 83
2018-09-26 06:00:00 16.9 12 Sudeste 30 Sudeste 0 918.3 0.1 83
2018-09-26 05:00:00 17.1 13 Sudeste 29 Sur 0 918.2 0.1 83
2018-09-26 04:00:00 17.1 15 Sudeste 33 Sudeste 0 918.1 0 83
2018-09-26 03:00:00 17.1 14 Sudeste 32 Sudeste 0 918.2 0.6 83
2018-09-26 02:00:00 17.4 13 Sudeste 27 Sudeste 0 918.1 1 81
2018-09-26 01:00:00 17.6 14 Sudeste 36 Sudeste 0 918.1 1.5 81
2018-09-26 00:00:00 17.6 14 Sudeste 32 Sur 0 917.6 1.4 82
2018-09-25 23:00:00 17.7 14 Sudeste 30 Sur 0 917.1 1.6 81
2018-09-25 22:00:00 18.2 13 Sudeste 29 Sur 0 916.6 1.5 79
2018-09-25 21:00:00 19.4 15 Sudeste 28 Sur 0 916.2 1.4 74
2018-09-25 20:00:00 21.3 15 Sudeste 32 Sudeste 0 915.5 0.6 67
2018-09-25 19:00:00 23.5 17 Sudeste 28 Sudeste 0 915.1 0.1 58
2018-09-25 18:00:00 25.8 13 Sur 27 Sudeste 0 914.8 -0.8 50
2018-09-25 17:00:00 26.8 14 Sudeste 31 Sudeste 0 914.9 -1.5 46
2018-09-25 16:00:00 26.5 13 Sur 29 Sudeste 0 915 -1.8 47
2018-09-25 15:00:00 25.3 14 Sur 26 Sur 0 915.6 -1.5 50
2018-09-25 14:00:00 24 14 Sur 30 Sur 0 916.4 -0.6 54
2018-09-25 13:00:00 22.4 14 Sudeste 30 Sudeste 0 916.8 0.4 61
2018-09-25 12:00:00 21.4 12 Sudeste 29 Sudeste 0 917.1 1 66
2018-09-25 11:00:00 20.7 16 Sur 33 Sudeste 0 917 1.5 68
2018-09-25 10:00:00 19.5 13 Sudeste 28 Sudeste 0 916.4 1.2 72
2018-09-25 09:00:00 17.2 12 Sudeste 23 Sur 0 916.1 1 79
2018-09-25 08:00:00 16 2 Sudeste 5 Norte 0 915.5 0.4 79
2018-09-25 07:00:00 16.5 0 Calma 5 Noroeste 0 915.2 0 78
2018-09-25 06:00:00 16.9 0 Calma 3 Noroeste 0 915.1 -0.4 79
2018-09-25 05:00:00 17.5 0 Calma 5 Norte 0 915.1 -0.5 76
2018-09-25 04:00:00 18 0 Calma 4 Sudoeste 0 915.2 -0.6 75
2018-09-25 03:00:00 18.9 2 Nordeste 5 Noroeste 0 915.5 -0.2 75
2018-09-25 02:00:00 19.3 2 Oeste 6 Oeste 0 915.6 0.3 67
2018-09-25 01:00:00 20.1 2 Oeste 9 Sudeste 0 915.8 0.9 62
2018-09-25 00:00:00 21 2 Norte 9 Norte 0 915.7 1.4 57
2018-09-24 23:00:00 22.7 3 Nordeste 7 Sudeste 0 915.3 1.2 50
2018-09-24 22:00:00 24.3 2 Noroeste 14 Norte 0 914.9 1 43
2018-09-24 21:00:00 25.6 5 Norte 14 Norte 0 914.3 0.3 39
2018-09-24 20:00:00 27.9 4 Norte 14 Norte 0 914.1 -0.2 33
2018-09-24 19:00:00 30.7 6 Noroeste 20 Noroeste 0 913.9 -0.8 25
2018-09-24 18:00:00 31.8 6 Noroeste 21 Noroeste 0 914 -1.2 22
2018-09-24 17:00:00 31.7 10 Noroeste 21 Noroeste 0 914.3 -1.5 21
2018-09-24 16:00:00 31.6 9 Noroeste 20 Norte 0 914.7 -1.7 23
2018-09-24 15:00:00 31 5 Norte 17 Noroeste 0 915.2 -1.6 26
2018-09-24 14:00:00 30.4 4 Noroeste 14 Noroeste 0 915.8 -1.2 27
2018-09-24 13:00:00 28.6 5 Noroeste 11 Noroeste 0 916.4 -0.3 34
2018-09-24 12:00:00 26.9 3 Oeste 6 Noroeste 0 916.8 0.3 38
2018-09-24 11:00:00 24.1 3 Norte 15 Norte 0 917 1.1 44
2018-09-24 10:00:00 20.6 5 Norte 12 Norte 0 916.7 1.2 54
2018-09-24 09:00:00 17.2 4 Nordeste 12 Nordeste 0 916.5 0.9 65
2018-09-24 08:00:00 18 6 Nordeste 14 Nordeste 0 915.9 0.1 59
2018-09-24 07:00:00 17.4 3 Norte 14 Norte 0 915.5 -0.5 63
2018-09-24 06:00:00 18 4 Norte 12 Norte 0 915.6 -0.7 60
2018-09-24 05:00:00 18.9 2 Sudeste 10 Norte 0 915.8 -0.4 57
2018-09-24 04:00:00 19.9 7 Norte 14 Nordeste 0 916 -0.4 52
2018-09-24 03:00:00 20.8 4 Noroeste 22 Sudeste 0 916.3 0 48
2018-09-24 02:00:00 23.1 13 Este 31 Este 0 916.2 0.2 41
2018-09-24 01:00:00 22.5 10 Este 23 Este 0 916.4 0.4 43
2018-09-24 00:00:00 21 10 Nordeste 24 Noroeste 0 916.3 0.7 45
2018-09-23 23:00:00 22.8 6 Nordeste 11 Nordeste 0 916 0.6 39
2018-09-23 22:00:00 24 3 Norte 13 Nordeste 0 916 0.9 37
2018-09-23 21:00:00 26 5 Nordeste 13 Nordeste 0 915.6 0.6 31
2018-09-23 20:00:00 28.2 4 Norte 16 Nordeste 0 915.4 0.2 29
2018-09-23 19:00:00 30.8 6 Norte 16 Norte 0 915.1 -0.4 26
2018-09-23 18:00:00 32.3 6 Norte 18 Nordeste 0 915 -1.1 24
2018-09-23 17:00:00 32.1 9 Norte 21 Norte 0 915.2 -1.6 25
2018-09-23 16:00:00 32.5 5 Sudoeste 13 Sur 0 915.5 -1.8 24
2018-09-23 15:00:00 31.6 6 Sudoeste 14 Sudoeste 0 916.1 -1.6 25
2018-09-23 14:00:00 30.7 5 Nordeste 12 Noroeste 0 916.8 -1 27
2018-09-23 13:00:00 29.6 4 Oeste 8 Sudeste 0 917.3 -0.2 32
2018-09-23 12:00:00 26.6 4 Sur 7 Sur 0 917.7 0.6 39
2018-09-23 11:00:00 22.6 4 Norte 7 Norte 0 917.8 1 47
2018-09-23 10:00:00 19.5 0 Calma 4 Sur 0 917.5 0.9 59
2018-09-23 09:00:00 15.4 3 Sudoeste 3 Sudoeste 0 917.1 0.5 72
2018-09-23 08:00:00 15.3 0 Calma 3 Sur 0 916.8 0.2 72
2018-09-23 07:00:00 15.8 2 Sudeste 3 Sur 0 916.6 -0.4 70
2018-09-23 06:00:00 16.2 0 Calma 4 Sudeste 0 916.6 -0.7 68
2018-09-23 05:00:00 16.7 2 Norte 5 Nordeste 0 916.6 -0.7 66
2018-09-23 04:00:00 17.2 0 Calma 5 Norte 0 917 -0.4 63
2018-09-23 03:00:00 18 5 Norte 9 Norte 0 917.3 0 61
2018-09-23 02:00:00 18.7 4 Norte 8 Norte 0 917.3 0.2 58
2018-09-23 01:00:00 19.4 2 Oeste 5 Norte 0 917.4 0.7 54
2018-09-23 00:00:00 20.5 2 Sur 5 Norte 0 917.3 0.9 50
2018-09-22 23:00:00 22 0 Calma 7 Nordeste 0 917.1 0.9 45
2018-09-22 22:00:00 23.7 4 Nordeste 15 Nordeste 0 916.7 0.8 40
2018-09-22 21:00:00 25.1 5 Norte 15 Nordeste 0 916.4 0.8 35
2018-09-22 20:00:00 27.3 6 Nordeste 18 Norte 0 916.2 0.4 29
2018-09-22 19:00:00 30.1 7 Norte 19 Noroeste 0 915.9 -0.1 27
2018-09-22 18:00:00 31.4 7 Noroeste 18 Noroeste 0 915.6 -0.7 24
2018-09-22 17:00:00 31.8 5 Norte 21 Noroeste 0 915.8 -0.9 24
2018-09-22 16:00:00 31.5 7 Norte 21 Este 0 916 -1.2 25
2018-09-22 15:00:00 30.8 8 Oeste 28 Oeste 0 916.3 -0.9 27
2018-09-22 14:00:00 30.3 5 Sur 12 Oeste 0 916.7 -0.3 31
2018-09-22 13:00:00 28.3 5 Oeste 10 Oeste 0 917.2 0.5 34
2018-09-22 12:00:00 26.5 3 Oeste 6 Oeste 0 917.2 0.8 45
2018-09-22 11:00:00 22.7 3 Sudoeste 5 Sudoeste 0 917 1 56
2018-09-22 10:00:00 19 3 Sudoeste 5 Oeste 0 916.7 1.1 66
2018-09-22 09:00:00 15.5 2 Sudoeste 3 Sur 0 916.4 1.2 78
2018-09-22 08:00:00 15.3 0 Calma 2 Sudeste 0 916 1.1 79
2018-09-22 07:00:00 15.8 0 Calma 2 Sur 0 915.6 0.5 76
2018-09-22 06:00:00 16.3 0 Calma 4 Sudeste 0 915.2 0 75
2018-09-22 05:00:00 16.9 0 Calma 4 Sur 0 914.9 -0.4 73
2018-09-22 04:00:00 17.5 0 Calma 4 Norte 0 915.1 0.1 70
2018-09-22 03:00:00 18.3 0 Calma 4 Norte 0 915.2 0.5 65
2018-09-22 02:00:00 18.9 0 Calma 6 Noroeste 0 915.3 0.8 60
2018-09-22 01:00:00 19.7 0 Calma 5 Sur 0 915 1 57
2018-09-22 00:00:00 20.6 2 Nordeste 6 Norte 0 914.7 1.2 54
2018-09-21 23:00:00 21.5 2 Sudeste 7 Nordeste 0 914.5 1.4 50
2018-09-21 22:00:00 23.2 3 Norte 12 Este 0 914 1.4 43
2018-09-21 21:00:00 24.6 5 Nordeste 14 Nordeste 0 913.5 1.4 38
2018-09-21 20:00:00 26.4 6 Norte 16 Norte 0 913.1 0.9 35
2018-09-21 19:00:00 28.5 6 Norte 17 Norte 0 912.6 0.4 32
2018-09-21 18:00:00 30.2 5 Noroeste 16 Noroeste 0 912.1 -0.6 26
2018-09-21 17:00:00 29.8 5 Norte 20 Noroeste 0 912.2 -0.9 28
2018-09-21 16:00:00 30.1 7 Oeste 17 Noroeste 0 912.2 -1.3 28
2018-09-21 15:00:00 28.7 6 Noroeste 19 Oeste 0 912.7 -1 32
2018-09-21 14:00:00 29.5 5 Norte 13 Noroeste 0 913.1 -0.6 30
2018-09-21 13:00:00 27.8 5 Noroeste 10 Noroeste 0 913.5 0.2 37
2018-09-21 12:00:00 25.2 3 Sur 10 Norte 0 913.7 0.8 46
2018-09-21 11:00:00 22.1 4 Norte 10 Noroeste 0 913.7 1.2 54
2018-09-21 10:00:00 18.5 2 Nordeste 9 Nordeste 0 913.3 1.1 69
2018-09-21 09:00:00 14.8 2 Norte 9 Norte 0 912.9 0.9 85
2018-09-21 08:00:00 14.6 2 Este 5 Norte 0 912.5 0.3 87
2018-09-21 07:00:00 15.1 0 Calma 4 Sudoeste 0 912.2 -0.1 86
2018-09-21 06:00:00 15.5 0 Calma 3 Sudoeste 0 912 -0.6 84
2018-09-21 05:00:00 16 2 Norte 5 Oeste 0 912.2 -0.6 83
2018-09-21 04:00:00 16.5 2 Nordeste 9 Norte 0 912.3 -0.6 81
2018-09-21 03:00:00 17 2 Noroeste 4 Este 0 912.6 -0.5 78
2018-09-21 02:00:00 17.6 0 Calma 9 Norte 0 912.8 -0.4 74
2018-09-21 01:00:00 17.9 3 Norte 8 Norte 0 912.9 0 72
2018-09-21 00:00:00 18.7 4 Norte 8 Norte 0 913.1 0.6 71
2018-09-20 23:00:00 19.6 5 Norte 9 Norte 0 913.2 0.9 67
2018-09-20 22:00:00 21.2 0 Calma 7 Norte 0 912.9 0.5 60
2018-09-20 21:00:00 22.8 4 Norte 12 Norte 0 912.5 0.6 54
2018-09-20 20:00:00 25 6 Sudeste 14 Sur 0 912.3 0.1 42
2018-09-20 19:00:00 26 5 Sudeste 21 Sur 0 912.4 -0.1 39
2018-09-20 18:00:00 27.9 8 Sudoeste 18 Sudoeste 0 911.9 -1.1 33
2018-09-20 17:00:00 29 8 Oeste 13 Oeste 0 912.2 -1.4 30
2018-09-20 16:00:00 29.4 4 Sudoeste 14 Sudoeste 0 912.5 -1.8 27
2018-09-20 15:00:00 30 4 Oeste 12 Oeste 0 913 -1.7 28
2018-09-20 14:00:00 28.8 6 Sudoeste 13 Oeste 0 913.6 -1.3 27
2018-09-20 13:00:00 27.4 5 Oeste 9 Sudoeste 0 914.3 -0.6 37
2018-09-20 12:00:00 24.8 3 Sudoeste 6 Sur 0 914.7 -0.1 53
2018-09-20 11:00:00 21.6 3 Sudoeste 5 Oeste 0 914.9 0.2 66
2018-09-20 10:00:00 18.5 0 Calma 4 Sur 0 914.9 0.3 77
2018-09-20 09:00:00 15 0 Calma 5 Norte 0 914.8 0.1 90
2018-09-20 08:00:00 14.9 0 Calma 3 Norte 0 914.7 -0.2 89
2018-09-20 07:00:00 15.4 0 Calma 4 Norte 0 914.6 -0.6 88
2018-09-20 06:00:00 15.8 0 Calma 4 Oeste 0 914.7 -0.6 87
2018-09-20 05:00:00 16.3 0 Calma 4 Norte 0 914.9 -0.6 85
2018-09-20 04:00:00 16.8 3 Norte 5 Norte 0 915.2 -0.4 84
2018-09-20 03:00:00 17.3 0 Calma 6 Oeste 0 915.3 -0.4 83
2018-09-20 02:00:00 17.9 2 Sur 5 Sudoeste 0 915.5 0.1 79
2018-09-20 01:00:00 18.6 4 Sudoeste 9 Sur 0 915.6 0.6 76
2018-09-20 00:00:00 19.8 3 Sudeste 8 Sur 0 915.7 1.5 71